createdAt,value
2018-05-11T00:02:09.023Z,97.60
2018-05-11T00:04:37.037Z,97.90
2018-05-11T00:07:05.819Z,98.40
2018-05-11T00:09:33.835Z,98.40
2018-05-11T00:12:01.851Z,98.30
2018-05-11T00:14:29.912Z,98.80
2018-05-11T00:16:57.906Z,96.20
2018-05-11T00:19:25.919Z,96.40
2018-05-11T00:21:53.936Z,96.40
2018-05-11T00:24:22.703Z,95.80
2018-05-11T00:26:50.714Z,95.80
2018-05-11T00:29:19.491Z,96.80
2018-05-11T00:31:49.318Z,96.80
2018-05-11T00:34:17.386Z,96.30
2018-05-11T00:36:46.459Z,95.30
2018-05-11T00:39:14.523Z,95.30
2018-05-11T00:41:42.587Z,95.60
2018-05-11T00:44:10.623Z,96.00
2018-05-11T00:46:38.691Z,96.80
2018-05-11T00:49:07.506Z,97.40
2018-05-11T00:51:35.564Z,97.40
2018-05-11T00:54:04.390Z,95.30
2018-05-11T00:56:32.439Z,95.30
2018-05-11T00:59:00.497Z,96.30
2018-05-11T01:01:28.551Z,96.00
2018-05-11T01:03:56.622Z,96.30
2018-05-11T01:06:24.667Z,95.30
2018-05-11T01:08:52.710Z,95.30
2018-05-11T01:11:20.770Z,95.40
2018-05-11T01:13:50.207Z,95.60
2018-05-11T01:16:18.339Z,96.70
2018-05-11T01:18:47.071Z,96.80
2018-05-11T01:21:15.130Z,96.70
2018-05-11T01:23:43.175Z,97.30
2018-05-11T01:26:11.230Z,97.60
2018-05-11T01:28:39.294Z,96.20
2018-05-11T01:31:08.103Z,96.00
2018-05-11T01:33:36.931Z,95.50
2018-05-11T01:36:04.980Z,95.50
2018-05-11T01:38:33.802Z,96.30
2018-05-11T01:41:01.866Z,96.10
2018-05-11T01:43:30.699Z,96.00
2018-05-11T01:45:58.728Z,96.00
2018-05-11T01:48:26.800Z,96.20
2018-05-11T01:50:54.840Z,96.10
2018-05-11T01:53:22.899Z,96.30
2018-05-11T01:55:51.727Z,96.40
2018-05-11T01:58:19.771Z,96.40
2018-05-11T02:00:47.840Z,96.60
2018-05-11T02:03:15.882Z,96.80
2018-05-11T02:05:43.956Z,97.40
2018-05-11T02:08:12.761Z,97.30
2018-05-11T02:10:40.871Z,97.30
2018-05-11T02:13:08.910Z,96.80
2018-05-11T02:15:37.960Z,97.20
2018-05-11T02:18:06.030Z,97.20
2018-05-11T02:20:34.069Z,97.40
2018-05-11T02:23:02.135Z,97.20
2018-05-11T02:25:30.182Z,97.20
2018-05-11T02:27:58.243Z,96.00
2018-05-11T02:30:27.052Z,94.80
2018-05-11T02:32:55.887Z,94.80
2018-05-11T02:35:23.925Z,94.80
2018-05-11T02:37:52.757Z,95.30
2018-05-11T02:40:20.811Z,95.20
2018-05-11T02:42:49.635Z,95.20
2018-05-11T02:45:17.708Z,95.20
2018-05-11T02:47:46.519Z,97.10
2018-05-11T02:50:14.579Z,97.10
2018-05-11T02:52:43.398Z,96.80
2018-05-11T02:55:12.229Z,97.10
2018-05-11T02:57:40.374Z,97.10
2018-05-11T03:00:09.212Z,97.00
2018-05-11T03:02:37.627Z,96.70
2018-05-11T03:05:05.823Z,97.10
2018-05-11T03:07:33.901Z,97.10
2018-05-11T03:10:01.943Z,96.60
2018-05-11T03:12:29.998Z,97.20
2018-05-11T03:14:58.811Z,97.00
2018-05-11T03:17:27.640Z,97.50
2018-05-11T03:19:55.681Z,97.50
2018-05-11T03:22:23.747Z,97.70
2018-05-11T03:24:51.824Z,98.10
2018-05-11T03:27:19.871Z,98.30
2018-05-11T03:29:48.203Z,98.40
2018-05-11T03:32:16.241Z,98.50
2018-05-11T03:34:44.302Z,97.30
2018-05-11T03:37:13.103Z,97.10
2018-05-11T03:39:41.927Z,96.20
2018-05-11T03:42:09.997Z,96.20
2018-05-11T03:44:38.063Z,95.20
2018-05-11T03:47:06.107Z,95.20
2018-05-11T03:49:34.171Z,95.40
2018-05-11T03:52:02.228Z,95.80
2018-05-11T03:54:30.289Z,96.40
2018-05-11T03:56:58.355Z,96.50
2018-05-11T03:59:26.407Z,96.80
2018-05-11T04:02:06.460Z,97.40
2018-05-11T04:04:47.251Z,98.00
2018-05-11T04:07:27.167Z,97.90
2018-05-11T04:09:55.232Z,97.40
2018-05-11T04:12:23.281Z,97.40
2018-05-11T04:14:52.096Z,97.20
2018-05-11T04:17:20.159Z,97.20
2018-05-11T04:19:48.204Z,97.20
2018-05-11T04:22:16.267Z,97.10
2018-05-11T04:24:44.307Z,97.60
2018-05-11T04:27:13.132Z,96.30
2018-05-11T04:29:41.172Z,96.30
2018-05-11T04:32:09.235Z,96.30
2018-05-11T04:34:37.275Z,96.30
2018-05-11T04:37:05.360Z,96.50
2018-05-11T04:39:33.403Z,96.90
2018-05-11T04:42:01.478Z,95.40
2018-05-11T04:44:29.727Z,95.40
2018-05-11T04:46:57.796Z,93.90
2018-05-11T04:49:25.853Z,95.40
2018-05-11T04:51:53.962Z,93.90
2018-05-11T04:54:22.047Z,95.40
2018-05-11T04:56:50.091Z,95.40
2018-05-11T04:59:18.155Z,94.00
2018-05-11T05:01:46.191Z,93.90
2018-05-11T05:04:15.020Z,93.70
2018-05-11T05:06:43.091Z,93.70
2018-05-11T05:09:12.023Z,93.60
2018-05-11T05:11:40.220Z,93.60
2018-05-11T05:14:08.307Z,93.30
2018-05-11T05:16:36.360Z,93.90
2018-05-11T05:19:04.432Z,92.70
2018-05-11T05:21:32.525Z,91.70
2018-05-11T05:24:00.576Z,90.30
2018-05-11T05:26:29.416Z,91.10
2018-05-11T05:28:57.452Z,91.00
2018-05-11T05:31:25.651Z,91.60
2018-05-11T05:33:53.687Z,91.60
2018-05-11T05:36:21.753Z,92.50
2018-05-11T05:38:49.795Z,91.90
2018-05-11T05:41:18.100Z,92.50
2018-05-11T05:43:46.907Z,94.40
2018-05-11T05:46:15.732Z,92.10
2018-05-11T05:48:43.795Z,92.00
2018-05-11T05:51:12.612Z,92.60
2018-05-11T05:53:41.736Z,93.00
2018-05-11T05:56:09.776Z,93.00
2018-05-11T05:58:38.595Z,91.70
2018-05-11T06:01:06.640Z,91.70
2018-05-11T06:03:34.699Z,92.00
2018-05-11T06:06:02.743Z,91.80
2018-05-11T06:08:30.817Z,91.30
2018-05-11T06:10:58.885Z,91.00
2018-05-11T06:13:28.183Z,91.30
2018-05-11T06:15:56.225Z,91.30
2018-05-11T06:18:24.313Z,89.60
2018-05-11T06:20:52.371Z,87.20
2018-05-11T06:23:21.175Z,87.40
2018-05-11T06:25:50.003Z,89.40
2018-05-11T06:28:18.044Z,89.60
2018-05-11T06:30:46.112Z,88.20
2018-05-11T06:33:14.148Z,90.30
2018-05-11T06:35:42.221Z,91.90
2018-05-11T06:38:11.023Z,85.60
2018-05-11T06:40:39.169Z,85.60
2018-05-11T06:43:07.189Z,88.80
2018-05-11T06:45:36.026Z,87.50
2018-05-11T06:48:04.552Z,87.50
2018-05-11T06:50:32.791Z,85.70
2018-05-11T06:53:00.866Z,85.60
2018-05-11T06:55:28.904Z,84.60
2018-05-11T06:57:56.976Z,84.70
2018-05-11T07:00:26.034Z,83.70
2018-05-11T07:02:54.105Z,86.00
2018-05-11T07:05:22.913Z,87.40
2018-05-11T07:07:51.735Z,89.70
2018-05-11T07:10:19.787Z,89.60
2018-05-11T07:12:48.615Z,86.80
2018-05-11T07:15:16.656Z,86.70
2018-05-11T07:17:44.719Z,85.40
2018-05-11T07:20:12.797Z,87.30
2018-05-11T07:22:40.843Z,87.20
2018-05-11T07:25:09.679Z,85.90
2018-05-11T07:27:37.759Z,85.70
2018-05-11T07:30:05.841Z,85.50
2018-05-11T07:32:33.924Z,88.10
2018-05-11T07:35:02.064Z,87.30
2018-05-11T07:37:30.060Z,86.40
2018-05-11T07:39:58.893Z,84.30
2018-05-11T07:42:26.927Z,84.20
2018-05-11T07:44:54.993Z,85.70
2018-05-11T07:47:23.036Z,82.10
2018-05-11T07:49:51.108Z,85.70
2018-05-11T07:52:19.187Z,84.60
2018-05-11T07:54:47.236Z,83.50
2018-05-11T07:57:15.740Z,84.00
2018-05-11T07:59:43.787Z,83.80
2018-05-11T08:02:11.857Z,84.40
2018-05-11T08:04:39.904Z,84.00
2018-05-11T08:07:08.731Z,80.00
2018-05-11T08:09:36.775Z,79.30
2018-05-11T08:12:04.855Z,82.10
2018-05-11T08:14:32.990Z,82.00
2018-05-11T08:17:00.977Z,84.60
2018-05-11T08:19:29.043Z,78.50
2018-05-11T08:21:57.085Z,79.70
2018-05-11T08:24:25.139Z,80.70
2018-05-11T08:26:53.275Z,78.30
2018-05-11T08:29:21.259Z,76.10
2018-05-11T08:31:50.074Z,75.80
2018-05-11T08:34:18.152Z,75.80
2018-05-11T08:36:46.958Z,74.60
2018-05-11T08:39:15.788Z,74.50
2018-05-11T08:41:43.843Z,74.50
2018-05-11T08:44:12.677Z,75.90
2018-05-11T08:46:40.718Z,75.90
2018-05-11T08:49:09.564Z,79.40
2018-05-11T08:51:37.610Z,79.40
2018-05-11T08:54:06.451Z,77.50
2018-05-11T08:56:34.548Z,77.50
2018-05-11T08:59:02.628Z,77.10
2018-05-11T09:01:30.687Z,81.40
2018-05-11T09:03:58.743Z,80.50
2018-05-11T09:06:27.767Z,76.30
2018-05-11T09:08:56.576Z,77.60
2018-05-11T09:11:25.843Z,77.60
2018-05-11T09:13:53.908Z,76.30
2018-05-11T09:16:21.973Z,77.10
2018-05-11T09:18:50.040Z,77.60
2018-05-11T09:21:18.101Z,77.50
2018-05-11T09:23:46.940Z,79.40
2018-05-11T09:26:15.059Z,79.20
2018-05-11T09:28:43.116Z,81.30
2018-05-11T09:31:11.168Z,78.60
2018-05-11T09:33:40.008Z,79.20
2018-05-11T09:36:08.063Z,79.00
2018-05-11T09:38:36.881Z,79.30
2018-05-11T09:41:04.939Z,79.30
2018-05-11T09:43:33.008Z,80.40
2018-05-11T09:46:01.831Z,77.20
2018-05-11T09:48:29.904Z,77.20
2018-05-11T09:50:58.723Z,73.60
2018-05-11T09:53:26.796Z,73.50
2018-05-11T09:55:55.602Z,73.20
2018-05-11T09:58:23.663Z,73.30
2018-05-11T10:00:52.572Z,76.70
2018-05-11T10:03:20.555Z,75.90
2018-05-11T10:05:49.359Z,72.40
2018-05-11T10:08:18.186Z,72.60
2018-05-11T10:10:46.244Z,72.50
2018-05-11T10:13:15.075Z,74.80
2018-05-11T10:15:43.115Z,74.70
2018-05-11T10:18:11.188Z,73.80
2018-05-11T10:20:39.243Z,71.00
2018-05-11T10:23:07.308Z,73.50
2018-05-11T10:25:35.362Z,72.30
2018-05-11T10:28:04.193Z,76.10
2018-05-11T10:30:32.259Z,75.50
2018-05-11T10:33:01.076Z,70.70
2018-05-11T10:35:29.147Z,70.60
2018-05-11T10:37:57.964Z,71.00
2018-05-11T10:40:26.023Z,70.90
2018-05-11T10:42:54.831Z,74.40
2018-05-11T10:45:23.662Z,73.70
2018-05-11T10:47:51.703Z,73.90
2018-05-11T10:50:20.530Z,68.30
2018-05-11T10:52:48.587Z,68.00
2018-05-11T10:55:17.428Z,70.10
2018-05-11T10:57:45.510Z,70.00
2018-05-11T11:00:13.575Z,70.40
2018-05-11T11:02:42.379Z,70.30
2018-05-11T11:05:11.741Z,68.70
2018-05-11T11:07:39.783Z,68.50
2018-05-11T11:10:07.880Z,68.60
2018-05-11T11:12:35.952Z,69.10
2018-05-11T11:15:04.007Z,65.70
2018-05-11T11:17:32.847Z,69.40
2018-05-11T11:20:00.945Z,69.50
2018-05-11T11:22:28.991Z,67.30
2018-05-11T11:24:57.803Z,70.60
2018-05-11T11:27:26.630Z,69.40
2018-05-11T11:29:54.676Z,69.30
2018-05-11T11:32:23.509Z,67.90
2018-05-11T11:34:51.556Z,67.90
2018-05-11T11:37:19.632Z,71.40
2018-05-11T11:39:47.679Z,68.40
2018-05-11T11:42:15.742Z,70.00
2018-05-11T11:44:43.798Z,70.10
2018-05-11T11:47:12.616Z,69.00
2018-05-11T11:49:41.468Z,68.30
2018-05-11T11:52:09.507Z,68.20
2018-05-11T11:54:37.617Z,68.00
2018-05-11T11:57:05.647Z,67.20
2018-05-11T11:59:33.723Z,70.50
2018-05-11T12:02:01.811Z,68.60
2018-05-11T12:04:29.863Z,67.60
2018-05-11T12:06:57.906Z,64.80
2018-05-11T12:09:25.975Z,67.30
2018-05-11T12:11:54.812Z,67.20
2018-05-11T12:14:22.864Z,67.20
2018-05-11T12:16:51.691Z,69.20
2018-05-11T12:19:19.751Z,69.20
2018-05-11T12:21:48.583Z,68.20
2018-05-11T12:24:16.629Z,68.10
2018-05-11T12:26:44.687Z,68.30
2018-05-11T12:29:12.744Z,69.90
2018-05-11T12:31:40.812Z,69.60
2018-05-11T12:34:08.853Z,70.50
2018-05-11T12:36:36.923Z,69.20
2018-05-11T12:39:05.679Z,70.40
2018-05-11T12:41:33.748Z,70.00
2018-05-11T12:44:02.559Z,68.90
2018-05-11T12:46:30.752Z,68.90
2018-05-11T12:48:58.703Z,68.30
2018-05-11T12:51:27.544Z,65.60
2018-05-11T12:53:55.590Z,65.60
2018-05-11T12:56:24.415Z,63.20
2018-05-11T12:58:52.464Z,63.20
2018-05-11T13:01:20.527Z,65.90
2018-05-11T13:03:48.579Z,61.50
2018-05-11T13:06:16.643Z,62.50
2018-05-11T13:08:45.455Z,67.30
2018-05-11T13:11:13.990Z,67.90
2018-05-11T13:13:42.107Z,65.40
2018-05-11T13:16:10.943Z,64.90
2018-05-11T13:18:38.991Z,64.90
2018-05-11T13:21:07.064Z,61.40
2018-05-11T13:23:35.112Z,62.00
2018-05-11T13:26:03.176Z,61.90
2018-05-11T13:28:31.235Z,61.80
2018-05-11T13:31:00.073Z,65.30
2018-05-11T13:33:28.115Z,66.10
2018-05-11T13:35:56.973Z,61.90
2018-05-11T13:38:25.016Z,61.80
2018-05-11T13:40:53.849Z,62.90
2018-05-11T13:43:21.894Z,62.90
2018-05-11T13:45:50.731Z,58.10
2018-05-11T13:48:18.899Z,57.80
2018-05-11T13:50:47.612Z,55.00
2018-05-11T13:53:15.677Z,54.90
2018-05-11T13:55:43.755Z,54.30
2018-05-11T13:58:12.570Z,53.30
2018-05-11T14:00:40.648Z,53.40
2018-05-11T14:03:08.771Z,49.20
2018-05-11T14:05:37.479Z,46.90
2018-05-11T14:08:05.536Z,48.00
2018-05-11T14:10:33.584Z,47.50
2018-05-11T14:13:01.652Z,45.30
2018-05-11T14:15:29.688Z,48.30
2018-05-11T14:17:57.756Z,50.20
2018-05-11T14:20:25.819Z,49.10
2018-05-11T14:22:53.887Z,47.40
2018-05-11T14:25:21.934Z,48.70
2018-05-11T14:27:49.990Z,46.40
2018-05-11T14:30:18.820Z,45.60
2018-05-11T14:32:46.939Z,45.50
2018-05-11T14:35:14.995Z,42.20
2018-05-11T14:37:43.052Z,41.90
2018-05-11T14:40:11.111Z,43.20
2018-05-11T14:42:39.935Z,47.10
2018-05-11T14:45:08.755Z,44.60
2018-05-11T14:47:36.798Z,44.60
2018-05-11T14:50:04.883Z,44.50
2018-05-11T14:52:32.944Z,45.30
2018-05-11T14:55:00.998Z,46.70
2018-05-11T14:57:29.044Z,45.80
2018-05-11T14:59:57.847Z,39.50
2018-05-11T15:02:26.670Z,42.20
2018-05-11T15:04:54.718Z,42.20
2018-05-11T15:07:22.772Z,40.70
2018-05-11T15:09:50.829Z,42.20
2018-05-11T15:12:18.884Z,43.10
2018-05-11T15:14:47.695Z,44.60
2018-05-11T15:17:15.763Z,44.60
2018-05-11T15:19:43.824Z,42.60
2018-05-11T15:22:11.899Z,44.30
2018-05-11T15:24:39.968Z,44.80
2018-05-11T15:27:08.023Z,42.50
2018-05-11T15:29:36.847Z,45.20
2018-05-11T15:32:04.887Z,45.10
2018-05-11T15:34:33.724Z,40.80
2018-05-11T15:37:01.767Z,41.30
2018-05-11T15:39:30.607Z,42.20
2018-05-11T15:41:58.652Z,42.10
2018-05-11T15:44:26.703Z,44.70
2018-05-11T15:46:54.746Z,44.20
2018-05-11T15:49:23.570Z,41.40
2018-05-11T15:51:51.631Z,41.20
2018-05-11T15:54:20.431Z,38.20
2018-05-11T15:56:48.491Z,38.10
2018-05-11T15:59:18.033Z,35.70
2018-05-11T16:01:46.856Z,35.60
2018-05-11T16:04:14.890Z,35.70
2018-05-11T16:06:42.948Z,35.60
2018-05-11T16:09:11.015Z,34.60
2018-05-11T16:11:39.060Z,34.60
2018-05-11T16:14:07.110Z,35.50
2018-05-11T16:16:35.149Z,34.00
2018-05-11T16:19:03.209Z,32.70
2018-05-11T16:21:31.252Z,31.60
2018-05-11T16:23:59.384Z,31.60
2018-05-11T16:26:28.370Z,30.70
2018-05-11T16:28:57.932Z,31.90
2018-05-11T16:31:25.973Z,31.90
2018-05-11T16:33:54.039Z,31.40
2018-05-11T16:36:22.880Z,31.20
2018-05-11T16:38:51.732Z,34.80
2018-05-11T16:41:19.789Z,34.70
2018-05-11T16:43:47.833Z,34.30
2018-05-11T16:46:15.886Z,32.70
2018-05-11T16:48:43.927Z,31.80
2018-05-11T16:51:12.835Z,32.60
2018-05-11T16:53:41.454Z,32.50
2018-05-11T16:56:09.511Z,33.30
2018-05-11T16:58:38.311Z,34.60
2018-05-11T17:01:07.139Z,33.60
2018-05-11T17:03:35.175Z,33.60
2018-05-11T17:06:03.328Z,33.10
2018-05-11T17:08:31.363Z,33.40
2018-05-11T17:10:59.432Z,31.10
2018-05-11T17:13:27.487Z,30.10
2018-05-11T17:15:55.518Z,30.90
2018-05-11T17:18:24.342Z,31.20
2018-05-11T17:20:52.378Z,30.40
2018-05-11T17:23:20.535Z,31.50
2018-05-11T17:25:48.574Z,30.40
2018-05-11T17:28:16.799Z,31.30
2018-05-11T17:30:44.832Z,31.30
2018-05-11T17:33:14.480Z,33.00
2018-05-11T17:35:42.525Z,32.90
2018-05-11T17:38:10.579Z,34.50
2018-05-11T17:40:38.619Z,34.60
2018-05-11T17:43:07.432Z,37.10
2018-05-11T17:45:35.532Z,37.00
2018-05-11T17:48:03.576Z,38.60
2018-05-11T17:50:32.442Z,39.20
2018-05-11T17:53:00.500Z,39.70
2018-05-11T17:55:29.475Z,40.20
2018-05-11T17:57:58.287Z,41.70
2018-05-11T18:00:26.339Z,41.70
2018-05-11T18:02:54.403Z,42.70
2018-05-11T18:05:22.436Z,43.80
2018-05-11T18:07:51.257Z,45.60
2018-05-11T18:10:19.351Z,45.50
2018-05-11T18:12:48.140Z,48.00
2018-05-11T18:15:16.462Z,47.90
2018-05-11T18:17:44.524Z,49.40
2018-05-11T18:20:12.571Z,49.90
2018-05-11T18:22:41.391Z,51.90
2018-05-11T18:25:09.431Z,51.80
2018-05-11T18:27:37.529Z,52.60
2018-05-11T18:30:05.621Z,53.00
2018-05-11T18:32:34.434Z,54.00
2018-05-11T18:35:03.272Z,54.00
2018-05-11T18:37:31.347Z,54.00
2018-05-11T18:39:59.415Z,54.60
2018-05-11T18:42:27.461Z,55.20
2018-05-11T18:44:55.532Z,55.70
2018-05-11T18:47:24.084Z,56.70
2018-05-11T18:49:53.212Z,58.40
2018-05-11T18:52:21.361Z,58.10
2018-05-11T18:54:50.175Z,59.10
2018-05-11T18:57:18.244Z,58.90
2018-05-11T18:59:47.074Z,61.20
2018-05-11T19:02:15.127Z,61.00
2018-05-11T19:04:43.942Z,62.70
2018-05-11T19:07:12.756Z,63.60
2018-05-11T19:09:40.829Z,62.80
2018-05-11T19:12:09.655Z,64.50
2018-05-11T19:14:37.707Z,64.50
2018-05-11T19:17:06.537Z,66.40
2018-05-11T19:19:34.728Z,66.40
2018-05-11T19:22:02.811Z,66.70
2018-05-11T19:24:30.870Z,66.30
2018-05-11T19:26:59.711Z,68.50
2018-05-11T19:29:27.751Z,68.50
2018-05-11T19:31:55.828Z,69.40
2018-05-11T19:34:24.634Z,70.80
2018-05-11T19:36:53.462Z,72.70
2018-05-11T19:39:21.504Z,72.70
2018-05-11T19:41:49.563Z,74.70
2018-05-11T19:44:17.624Z,74.90
2018-05-11T19:46:45.682Z,76.10
2018-05-11T19:49:13.732Z,75.50
2018-05-11T19:51:42.880Z,76.80
2018-05-11T19:54:10.920Z,77.00
2018-05-11T19:56:38.984Z,78.00
2018-05-11T19:59:07.152Z,78.30
2018-05-11T20:01:35.255Z,78.90
2018-05-11T20:04:03.715Z,78.20
2018-05-11T20:06:31.768Z,78.80
2018-05-11T20:09:00.646Z,79.70
2018-05-11T20:11:28.705Z,79.60
2018-05-11T20:13:56.747Z,81.00
2018-05-11T20:16:25.569Z,82.60
2018-05-11T20:18:53.641Z,82.60
2018-05-11T20:21:22.455Z,84.50
2018-05-11T20:23:50.523Z,83.70
2018-05-11T20:26:19.331Z,84.70
2018-05-11T20:28:48.264Z,84.60
2018-05-11T20:31:16.354Z,86.80
2018-05-11T20:33:44.428Z,86.80
2018-05-11T20:36:12.476Z,86.80
2018-05-11T20:38:41.750Z,86.80
2018-05-11T20:41:09.835Z,86.70
2018-05-11T20:43:37.867Z,86.80
2018-05-11T20:46:06.708Z,87.30
2018-05-11T20:48:34.760Z,87.20
2018-05-11T20:51:02.904Z,88.50
2018-05-11T20:53:31.158Z,89.40
2018-05-11T20:55:59.255Z,89.10
2018-05-11T20:58:27.305Z,89.10
2018-05-11T21:00:55.407Z,89.40
2018-05-11T21:03:23.454Z,90.00
2018-05-11T21:05:52.283Z,89.40
2018-05-11T21:08:20.335Z,89.30
2018-05-11T21:10:49.179Z,87.00
2018-05-11T21:13:17.247Z,87.00
2018-05-11T21:15:45.290Z,87.00
2018-05-11T21:18:13.363Z,87.00
2018-05-11T21:20:41.411Z,86.90
2018-05-11T21:23:09.479Z,87.00
2018-05-11T21:25:37.523Z,87.00
2018-05-11T21:28:05.594Z,87.00
2018-05-11T21:30:33.650Z,87.00
2018-05-11T21:33:01.714Z,87.90
2018-05-11T21:35:29.755Z,89.30
2018-05-11T21:37:57.828Z,89.90
2018-05-11T21:40:25.871Z,90.40
2018-05-11T21:42:53.935Z,90.00
2018-05-11T21:45:22.776Z,90.60
2018-05-11T21:47:50.807Z,90.60
2018-05-11T21:50:18.875Z,90.90
2018-05-11T21:52:46.943Z,90.70
2018-05-11T21:55:14.987Z,90.60
2018-05-11T21:57:43.819Z,91.50
2018-05-11T22:00:11.871Z,91.40
2018-05-11T22:02:40.711Z,90.60
2018-05-11T22:05:08.738Z,90.60
2018-05-11T22:07:36.802Z,90.20
2018-05-11T22:10:06.206Z,90.00
2018-05-11T22:12:34.288Z,89.90
2018-05-11T22:15:02.347Z,90.60
2018-05-11T22:17:30.397Z,90.20
2018-05-11T22:19:59.223Z,91.30
2018-05-11T22:22:27.274Z,91.30
2018-05-11T22:24:55.347Z,91.50
2018-05-11T22:27:23.400Z,91.70
2018-05-11T22:29:51.469Z,91.60
2018-05-11T22:32:19.528Z,91.30
2018-05-11T22:34:48.351Z,91.50
2018-05-11T22:37:16.416Z,91.50
2018-05-11T22:39:45.224Z,91.80
2018-05-11T22:42:14.043Z,91.80
2018-05-11T22:44:42.087Z,91.70
2018-05-11T22:47:10.163Z,91.40
2018-05-11T22:49:38.293Z,91.40
2018-05-11T22:52:06.283Z,92.00
2018-05-11T22:54:34.333Z,92.10
2018-05-11T22:57:02.388Z,91.80
2018-05-11T22:59:30.451Z,91.50
2018-05-11T23:01:58.526Z,91.30
2018-05-11T23:04:26.568Z,92.30
2018-05-11T23:06:55.404Z,91.90
2018-05-11T23:09:23.440Z,91.70
2018-05-11T23:11:51.495Z,91.90
2018-05-11T23:14:19.536Z,90.80
2018-05-11T23:16:48.371Z,91.00
2018-05-11T23:19:16.415Z,91.00
2018-05-11T23:21:44.475Z,91.40
2018-05-11T23:24:12.527Z,91.60
2018-05-11T23:26:40.575Z,92.30
2018-05-11T23:29:09.409Z,91.60
2018-05-11T23:31:37.463Z,91.50
2018-05-11T23:34:06.288Z,91.10
2018-05-11T23:36:34.335Z,91.10
2018-05-11T23:39:02.431Z,91.40
2018-05-11T23:41:31.258Z,92.00
2018-05-11T23:43:59.303Z,92.00
2018-05-11T23:46:28.250Z,92.50
2018-05-11T23:48:56.313Z,92.50
2018-05-11T23:51:25.144Z,93.40
2018-05-11T23:53:53.182Z,93.40
2018-05-11T23:56:22.003Z,93.80
2018-05-11T23:58:50.055Z,93.70
